CDT,Max TemperatureF,Mean TemperatureF,Min TemperatureF,Max Dew PointF,MeanDew PointF,Min DewpointF,Max Humidity, Mean Humidity, Min Humidity, Max Sea Level PressureIn, Mean Sea Level PressureIn, Min Sea Level PressureIn, Max VisibilityMiles, Mean VisibilityMiles, Min VisibilityMiles, Max Wind SpeedMPH, Mean Wind SpeedMPH, Max Gust SpeedMPH,PrecipitationIn, CloudCover, Events, WindDirDegrees
2011-10-1,89,66,43,50,42,36,76,49,21,29.93,29.89,29.85,10,10,8,10,4,13,0.00,1,,171
2011-10-2,83,66,48,49,46,40,80,53,25,29.94,29.86,29.83,10,10,9,15,5,18,0.00,0,,15
2011-10-3,80,66,52,52,50,48,89,62,35,30.06,29.99,29.92,10,10,10,16,7,23,0.00,0,,52
2011-10-4,81,66,50,53,50,48,89,62,35,29.98,29.79,29.57,10,10,10,17,9,23,0.00,0,,100
2011-10-5,86,69,51,50,46,42,83,53,23,29.56,29.50,29.43,10,10,10,18,8,25,0.00,1,,146
2011-10-6,72,67,61,57,50,41,84,59,34,29.49,29.47,29.42,10,10,10,21,10,26,0.02,5,Rain,125
2011-10-7,62,56,50,57,49,41,100,80,59,29.70,29.36,29.22,10,9,1,30,13,39,0.52,7,Rain-Thunderstorm,228
2011-10-8,59,46,33,50,42,35,89,67,44,30.30,30.01,29.70,10,10,5,24,12,30,0.00,4,Rain,301
2011-10-9,56,42,28,43,36,27,100,74,47,30.32,30.21,29.96,10,10,7,13,4,17,0.00,3,,115
2011-10-10,59,48,36,48,45,40,100,81,62,29.97,29.78,29.67,10,9,4,8,2,10,0.10,5,Rain,154
2011-10-11,68,52,36,44,41,35,100,71,42,29.67,29.64,29.58,10,10,10,13,4,17,0.00,2,,223
2011-10-12,65,54,43,43,41,39,92,66,40,29.88,29.79,29.68,10,10,10,21,9,25,T,2,,270
2011-10-13,58,49,40,42,37,33,92,68,43,29.95,29.88,29.82,10,10,10,26,13,35,T,2,,281
2011-10-14,54,44,34,36,33,29,92,69,46,30.08,30.01,29.94,10,10,10,22,10,31,0.00,3,,295
2011-10-15,54,43,32,39,34,31,96,75,54,30.01,29.96,29.90,10,10,10,17,4,22,T,6,,281
2011-10-16,54,43,32,33,27,20,82,54,26,30.16,30.08,30.02,10,10,10,18,9,22,0.00,0,,281
2011-10-17,55,43,30,28,25,22,75,52,28,30.23,30.14,30.06,10,10,10,25,12,31,0.00,0,,294
2011-10-18,57,40,23,30,27,23,92,63,33,30.32,30.28,30.19,10,10,8,17,4,23,0.00,3,,328
2011-10-19,58,44,30,32,29,26,92,64,36,30.27,30.16,29.99,10,10,10,15,7,20,0.00,0,,126
2011-10-20,68,51,34,36,31,26,70,50,30,30.01,29.91,29.81,10,10,10,17,8,24,0.00,0,,221
2011-10-21,60,45,29,37,32,27,96,65,33,30.15,30.07,29.94,10,10,6,13,3,16,0.00,0,,310
2011-10-22,68,48,27,40,33,26,100,63,26,30.10,29.94,29.85,10,10,10,22,8,30,T,1,,254
2011-10-23,62,49,36,46,40,33,100,71,42,30.01,29.90,29.85,10,10,7,20,7,25,0.09,3,Rain,257
2011-10-24,48,37,25,40,33,26,92,77,61,30.08,30.04,29.98,10,10,9,12,4,13,T,5,Rain,156
2011-10-25,44,38,32,41,37,30,100,88,76,30.27,30.09,29.98,10,9,4,18,7,22,0.12,6,Rain,288
2011-10-26,48,35,22,31,26,20,92,65,38,30.31,30.22,30.12,10,10,9,14,4,18,0.00,2,,227
2011-10-27,52,38,23,33,25,19,96,63,30,30.12,30.02,29.91,10,10,10,23,9,30,0.00,2,,264
2011-10-28,51,38,24,25,21,18,81,54,27,30.24,30.13,29.94,10,10,10,15,6,17,0.00,0,,208
2011-10-29,56,46,36,38,26,17,64,51,38,29.94,29.79,29.70,10,10,10,30,11,37,T,4,Rain,236
2011-10-30,52,41,29,27,24,22,78,55,32,30.09,30.00,29.88,10,10,10,16,9,21,0.00,0,,261
2011-10-31,63,48,32,40,32,25,85,64,42,29.95,29.78,29.69,10,10,10,29,9,37,T,3,,258